sensor_id;sensor_type;location;lat;lon;timestamp;P1;durP1;ratioP1;P2;durP2;ratioP2
69404;SDS011;57084;52.046;5.632;2022-07-12T00:01:02;3.93;;;1.80;;
69404;SDS011;57084;52.046;5.632;2022-07-12T00:03:27;4.90;;;1.60;;
69404;SDS011;57084;52.046;5.632;2022-07-12T00:05:53;3.77;;;1.70;;
69404;SDS011;57084;52.046;5.632;2022-07-12T00:08:19;3.78;;;1.70;;
69404;SDS011;57084;52.046;5.632;2022-07-12T00:10:44;4.43;;;1.37;;
69404;SDS011;57084;52.046;5.632;2022-07-12T00:13:09;3.47;;;1.60;;
69404;SDS011;57084;52.046;5.632;2022-07-12T00:15:35;3.33;;;1.42;;
69404;SDS011;57084;52.046;5.632;2022-07-12T00:18:01;3.60;;;1.77;;
69404;SDS011;57084;52.046;5.632;2022-07-12T00:20:26;6.27;;;1.63;;
69404;SDS011;57084;52.046;5.632;2022-07-12T00:22:52;3.77;;;1.60;;
69404;SDS011;57084;52.046;5.632;2022-07-12T00:25:17;4.23;;;1.70;;
69404;SDS011;57084;52.046;5.632;2022-07-12T00:27:42;4.40;;;1.80;;
69404;SDS011;57084;52.046;5.632;2022-07-12T00:30:08;3.80;;;1.30;;
69404;SDS011;57084;52.046;5.632;2022-07-12T00:32:33;4.30;;;1.87;;
69404;SDS011;57084;52.046;5.632;2022-07-12T00:34:59;5.03;;;1.50;;
69404;SDS011;57084;52.046;5.632;2022-07-12T00:37:24;4.77;;;1.70;;
69404;SDS011;57084;52.046;5.632;2022-07-12T00:39:50;5.13;;;1.77;;
69404;SDS011;57084;52.046;5.632;2022-07-12T00:42:15;4.50;;;2.10;;
69404;SDS011;57084;52.046;5.632;2022-07-12T00:44:41;4.93;;;1.90;;
69404;SDS011;57084;52.046;5.632;2022-07-12T00:47:06;4.07;;;1.90;;
69404;SDS011;57084;52.046;5.632;2022-07-12T00:49:31;5.60;;;1.93;;
69404;SDS011;57084;52.046;5.632;2022-07-12T00:51:57;5.13;;;1.90;;
69404;SDS011;57084;52.046;5.632;2022-07-12T00:54:23;4.88;;;2.00;;
69404;SDS011;57084;52.046;5.632;2022-07-12T00:56:48;5.80;;;1.80;;
69404;SDS011;57084;52.046;5.632;2022-07-12T00:59:14;3.70;;;1.70;;
69404;SDS011;57084;52.046;5.632;2022-07-12T01:01:39;4.73;;;1.97;;
69404;SDS011;57084;52.046;5.632;2022-07-12T01:04:06;3.60;;;1.80;;
69404;SDS011;57084;52.046;5.632;2022-07-12T01:06:31;3.70;;;1.80;;
69404;SDS011;57084;52.046;5.632;2022-07-12T01:08:57;4.57;;;1.70;;
69404;SDS011;57084;52.046;5.632;2022-07-12T01:11:24;4.07;;;1.70;;
69404;SDS011;57084;52.046;5.632;2022-07-12T01:13:50;4.03;;;1.90;;
69404;SDS011;57084;52.046;5.632;2022-07-12T01:16:17;8.68;;;1.77;;
69404;SDS011;57084;52.046;5.632;2022-07-12T01:18:44;4.40;;;2.20;;
69404;SDS011;57084;52.046;5.632;2022-07-12T01:21:10;3.78;;;1.60;;
69404;SDS011;57084;52.046;5.632;2022-07-12T01:23:40;4.70;;;2.10;;
69404;SDS011;57084;52.046;5.632;2022-07-12T01:26:06;3.97;;;1.70;;
69404;SDS011;57084;52.046;5.632;2022-07-12T01:28:32;4.20;;;2.00;;
69404;SDS011;57084;52.046;5.632;2022-07-12T01:30:57;4.73;;;2.00;;
69404;SDS011;57084;52.046;5.632;2022-07-12T01:33:24;4.93;;;2.10;;
69404;SDS011;57084;52.046;5.632;2022-07-12T01:35:58;4.50;;;1.90;;
69404;SDS011;57084;52.046;5.632;2022-07-12T01:38:23;4.88;;;2.20;;
69404;SDS011;57084;52.046;5.632;2022-07-12T01:40:49;4.97;;;2.00;;
69404;SDS011;57084;52.046;5.632;2022-07-12T01:43:14;7.87;;;2.07;;
69404;SDS011;57084;52.046;5.632;2022-07-12T01:45:39;4.30;;;2.23;;
69404;SDS011;57084;52.046;5.632;2022-07-12T01:48:06;6.45;;;2.35;;
69404;SDS011;57084;52.046;5.632;2022-07-12T01:50:32;6.00;;;2.43;;
69404;SDS011;57084;52.046;5.632;2022-07-12T01:52:57;4.80;;;2.30;;
69404;SDS011;57084;52.046;5.632;2022-07-12T01:55:23;4.60;;;2.30;;
69404;SDS011;57084;52.046;5.632;2022-07-12T01:57:48;6.07;;;2.40;;
69404;SDS011;57084;52.046;5.632;2022-07-12T02:00:14;4.82;;;2.20;;
69404;SDS011;57084;52.046;5.632;2022-07-12T02:02:39;6.17;;;2.20;;
69404;SDS011;57084;52.046;5.632;2022-07-12T02:05:05;5.67;;;2.10;;
69404;SDS011;57084;52.046;5.632;2022-07-12T02:07:31;4.85;;;2.20;;
69404;SDS011;57084;52.046;5.632;2022-07-12T02:09:57;3.97;;;1.80;;
69404;SDS011;57084;52.046;5.632;2022-07-12T02:12:22;4.17;;;1.57;;
69404;SDS011;57084;52.046;5.632;2022-07-12T02:14:48;5.67;;;2.20;;
69404;SDS011;57084;52.046;5.632;2022-07-12T02:17:14;4.13;;;2.00;;
69404;SDS011;57084;52.046;5.632;2022-07-12T02:19:39;4.97;;;1.97;;
69404;SDS011;57084;52.046;5.632;2022-07-12T02:22:04;5.17;;;2.00;;
69404;SDS011;57084;52.046;5.632;2022-07-12T02:24:30;6.37;;;1.97;;
69404;SDS011;57084;52.046;5.632;2022-07-12T02:26:55;4.23;;;1.90;;
69404;SDS011;57084;52.046;5.632;2022-07-12T02:29:20;5.22;;;2.10;;
69404;SDS011;57084;52.046;5.632;2022-07-12T02:31:46;5.20;;;2.10;;
69404;SDS011;57084;52.046;5.632;2022-07-12T02:34:11;4.97;;;2.07;;
69404;SDS011;57084;52.046;5.632;2022-07-12T02:36:36;6.63;;;2.10;;
69404;SDS011;57084;52.046;5.632;2022-07-12T02:39:02;6.03;;;2.37;;
69404;SDS011;57084;52.046;5.632;2022-07-12T02:41:29;4.15;;;1.98;;
69404;SDS011;57084;52.046;5.632;2022-07-12T02:43:58;5.57;;;2.25;;
69404;SDS011;57084;52.046;5.632;2022-07-12T02:46:24;4.53;;;2.27;;
69404;SDS011;57084;52.046;5.632;2022-07-12T02:48:49;6.20;;;2.40;;
69404;SDS011;57084;52.046;5.632;2022-07-12T02:51:14;4.68;;;2.38;;
69404;SDS011;57084;52.046;5.632;2022-07-12T02:53:40;5.03;;;2.50;;
69404;SDS011;57084;52.046;5.632;2022-07-12T02:56:05;4.37;;;2.20;;
69404;SDS011;57084;52.046;5.632;2022-07-12T02:58:31;4.40;;;2.27;;
69404;SDS011;57084;52.046;5.632;2022-07-12T03:00:56;7.10;;;2.58;;
69404;SDS011;57084;52.046;5.632;2022-07-12T03:03:22;6.17;;;2.20;;
69404;SDS011;57084;52.046;5.632;2022-07-12T03:05:47;4.83;;;2.50;;
69404;SDS011;57084;52.046;5.632;2022-07-12T03:08:13;7.67;;;2.93;;
69404;SDS011;57084;52.046;5.632;2022-07-12T03:10:38;4.50;;;2.33;;
69404;SDS011;57084;52.046;5.632;2022-07-12T03:13:04;5.33;;;2.30;;
69404;SDS011;57084;52.046;5.632;2022-07-12T03:15:31;5.40;;;2.40;;
69404;SDS011;57084;52.046;5.632;2022-07-12T03:17:57;5.40;;;2.40;;
69404;SDS011;57084;52.046;5.632;2022-07-12T03:20:24;4.63;;;2.20;;
69404;SDS011;57084;52.046;5.632;2022-07-12T03:22:50;4.57;;;2.30;;
69404;SDS011;57084;52.046;5.632;2022-07-12T03:25:16;4.15;;;2.10;;
69404;SDS011;57084;52.046;5.632;2022-07-12T03:27:42;5.68;;;2.33;;
69404;SDS011;57084;52.046;5.632;2022-07-12T03:30:08;7.40;;;2.30;;
69404;SDS011;57084;52.046;5.632;2022-07-12T03:32:34;4.93;;;2.40;;
69404;SDS011;57084;52.046;5.632;2022-07-12T03:35:00;8.57;;;2.50;;
69404;SDS011;57084;52.046;5.632;2022-07-12T03:37:25;4.53;;;2.13;;
69404;SDS011;57084;52.046;5.632;2022-07-12T03:39:51;5.17;;;2.13;;
69404;SDS011;57084;52.046;5.632;2022-07-12T03:42:18;5.38;;;2.33;;
69404;SDS011;57084;52.046;5.632;2022-07-12T03:44:43;5.73;;;2.07;;
69404;SDS011;57084;52.046;5.632;2022-07-12T03:47:09;4.43;;;2.27;;
69404;SDS011;57084;52.046;5.632;2022-07-12T03:49:34;4.30;;;2.10;;
69404;SDS011;57084;52.046;5.632;2022-07-12T03:51:59;4.47;;;2.20;;
69404;SDS011;57084;52.046;5.632;2022-07-12T03:54:24;4.67;;;2.30;;
69404;SDS011;57084;52.046;5.632;2022-07-12T03:56:50;5.77;;;2.40;;
69404;SDS011;57084;52.046;5.632;2022-07-12T03:59:34;4.32;;;2.15;;
69404;SDS011;57084;52.046;5.632;2022-07-12T04:01:59;4.73;;;2.30;;
69404;SDS011;57084;52.046;5.632;2022-07-12T04:04:26;5.90;;;2.40;;
69404;SDS011;57084;52.046;5.632;2022-07-12T04:06:51;4.47;;;2.10;;
69404;SDS011;57084;52.046;5.632;2022-07-12T04:09:16;4.33;;;2.30;;
69404;SDS011;57084;52.046;5.632;2022-07-12T04:11:41;4.90;;;2.40;;
69404;SDS011;57084;52.046;5.632;2022-07-12T04:14:07;5.37;;;2.40;;
69404;SDS011;57084;52.046;5.632;2022-07-12T04:16:32;4.97;;;2.50;;
69404;SDS011;57084;52.046;5.632;2022-07-12T04:18:57;4.27;;;2.30;;
69404;SDS011;57084;52.046;5.632;2022-07-12T04:21:23;4.60;;;2.30;;
69404;SDS011;57084;52.046;5.632;2022-07-12T04:23:48;4.90;;;2.23;;
69404;SDS011;57084;52.046;5.632;2022-07-12T04:26:14;6.63;;;2.43;;
69404;SDS011;57084;52.046;5.632;2022-07-12T04:28:39;5.63;;;2.30;;
69404;SDS011;57084;52.046;5.632;2022-07-12T04:31:05;5.47;;;2.67;;
69404;SDS011;57084;52.046;5.632;2022-07-12T04:33:31;5.18;;;2.13;;
69404;SDS011;57084;52.046;5.632;2022-07-12T04:35:57;5.17;;;2.40;;
69404;SDS011;57084;52.046;5.632;2022-07-12T04:38:22;6.03;;;2.40;;
69404;SDS011;57084;52.046;5.632;2022-07-12T04:40:48;8.80;;;2.33;;
69404;SDS011;57084;52.046;5.632;2022-07-12T04:43:13;5.93;;;2.60;;
69404;SDS011;57084;52.046;5.632;2022-07-12T04:45:38;10.17;;;6.50;;
69404;SDS011;57084;52.046;5.632;2022-07-12T04:48:04;5.83;;;3.37;;
69404;SDS011;57084;52.046;5.632;2022-07-12T04:50:29;7.87;;;2.97;;
69404;SDS011;57084;52.046;5.632;2022-07-12T04:52:54;5.93;;;2.50;;
69404;SDS011;57084;52.046;5.632;2022-07-12T04:55:20;5.50;;;2.80;;
69404;SDS011;57084;52.046;5.632;2022-07-12T04:57:45;6.50;;;2.70;;
69404;SDS011;57084;52.046;5.632;2022-07-12T05:00:10;6.50;;;2.60;;
69404;SDS011;57084;52.046;5.632;2022-07-12T05:02:36;6.88;;;3.10;;
69404;SDS011;57084;52.046;5.632;2022-07-12T05:05:02;6.77;;;2.90;;
69404;SDS011;57084;52.046;5.632;2022-07-12T05:07:28;6.18;;;2.88;;
69404;SDS011;57084;52.046;5.632;2022-07-12T05:09:53;8.30;;;2.93;;
69404;SDS011;57084;52.046;5.632;2022-07-12T05:12:18;6.20;;;3.07;;
69404;SDS011;57084;52.046;5.632;2022-07-12T05:14:43;7.07;;;2.80;;
69404;SDS011;57084;52.046;5.632;2022-07-12T05:17:09;6.63;;;3.50;;
69404;SDS011;57084;52.046;5.632;2022-07-12T05:19:35;8.63;;;3.90;;
69404;SDS011;57084;52.046;5.632;2022-07-12T05:22:01;13.75;;;3.67;;
69404;SDS011;57084;52.046;5.632;2022-07-12T05:24:27;6.63;;;3.50;;
69404;SDS011;57084;52.046;5.632;2022-07-12T05:26:52;6.93;;;3.70;;
69404;SDS011;57084;52.046;5.632;2022-07-12T05:29:18;9.97;;;3.90;;
69404;SDS011;57084;52.046;5.632;2022-07-12T05:31:43;14.83;;;3.70;;
69404;SDS011;57084;52.046;5.632;2022-07-12T05:34:15;10.40;;;3.87;;
69404;SDS011;57084;52.046;5.632;2022-07-12T05:36:40;7.13;;;3.80;;
69404;SDS011;57084;52.046;5.632;2022-07-12T05:39:05;9.57;;;3.90;;
69404;SDS011;57084;52.046;5.632;2022-07-12T05:41:38;7.85;;;4.25;;
69404;SDS011;57084;52.046;5.632;2022-07-12T05:44:03;9.20;;;4.13;;
69404;SDS011;57084;52.046;5.632;2022-07-12T05:46:28;9.23;;;4.53;;
69404;SDS011;57084;52.046;5.632;2022-07-12T05:48:54;10.53;;;5.27;;
69404;SDS011;57084;52.046;5.632;2022-07-12T05:51:19;8.70;;;5.20;;
69404;SDS011;57084;52.046;5.632;2022-07-12T05:54:03;8.73;;;4.90;;
69404;SDS011;57084;52.046;5.632;2022-07-12T05:56:29;13.90;;;6.93;;
69404;SDS011;57084;52.046;5.632;2022-07-12T05:58:55;14.88;;;6.00;;
69404;SDS011;57084;52.046;5.632;2022-07-12T06:01:20;10.17;;;5.27;;
69404;SDS011;57084;52.046;5.632;2022-07-12T06:03:45;9.67;;;5.33;;
69404;SDS011;57084;52.046;5.632;2022-07-12T06:06:11;9.20;;;5.40;;
69404;SDS011;57084;52.046;5.632;2022-07-12T06:08:36;9.83;;;4.87;;
69404;SDS011;57084;52.046;5.632;2022-07-12T06:11:02;11.47;;;5.23;;
69404;SDS011;57084;52.046;5.632;2022-07-12T06:13:27;8.20;;;4.40;;
69404;SDS011;57084;52.046;5.632;2022-07-12T06:15:53;11.93;;;4.78;;
69404;SDS011;57084;52.046;5.632;2022-07-12T06:18:20;10.18;;;3.90;;
69404;SDS011;57084;52.046;5.632;2022-07-12T06:20:46;7.40;;;4.17;;
69404;SDS011;57084;52.046;5.632;2022-07-12T06:23:11;7.63;;;4.00;;
69404;SDS011;57084;52.046;5.632;2022-07-12T06:25:37;9.15;;;3.95;;
69404;SDS011;57084;52.046;5.632;2022-07-12T06:28:04;8.63;;;3.70;;
69404;SDS011;57084;52.046;5.632;2022-07-12T06:30:29;7.35;;;3.42;;
69404;SDS011;57084;52.046;5.632;2022-07-12T06:32:55;7.47;;;3.70;;
69404;SDS011;57084;52.046;5.632;2022-07-12T06:35:20;7.50;;;3.70;;
69404;SDS011;57084;52.046;5.632;2022-07-12T06:37:45;11.10;;;3.80;;
69404;SDS011;57084;52.046;5.632;2022-07-12T06:40:11;6.17;;;3.37;;
69404;SDS011;57084;52.046;5.632;2022-07-12T06:42:37;6.73;;;3.50;;
69404;SDS011;57084;52.046;5.632;2022-07-12T06:45:03;8.35;;;4.07;;
69404;SDS011;57084;52.046;5.632;2022-07-12T06:47:29;6.50;;;3.75;;
69404;SDS011;57084;52.046;5.632;2022-07-12T06:49:54;7.27;;;3.37;;
69404;SDS011;57084;52.046;5.632;2022-07-12T06:52:27;5.90;;;2.92;;
69404;SDS011;57084;52.046;5.632;2022-07-12T06:54:52;7.95;;;3.03;;
69404;SDS011;57084;52.046;5.632;2022-07-12T06:57:17;6.73;;;3.70;;
69404;SDS011;57084;52.046;5.632;2022-07-12T06:59:43;5.77;;;3.07;;
69404;SDS011;57084;52.046;5.632;2022-07-12T07:02:08;7.40;;;3.83;;
69404;SDS011;57084;52.046;5.632;2022-07-12T07:04:33;7.83;;;4.03;;
69404;SDS011;57084;52.046;5.632;2022-07-12T07:06:59;6.90;;;3.95;;
69404;SDS011;57084;52.046;5.632;2022-07-12T07:09:24;7.90;;;3.80;;
69404;SDS011;57084;52.046;5.632;2022-07-12T07:11:50;6.83;;;3.70;;
69404;SDS011;57084;52.046;5.632;2022-07-12T07:14:15;6.55;;;3.45;;
69404;SDS011;57084;52.046;5.632;2022-07-12T07:16:41;7.57;;;3.87;;
69404;SDS011;57084;52.046;5.632;2022-07-12T07:19:06;6.60;;;3.37;;
69404;SDS011;57084;52.046;5.632;2022-07-12T07:21:31;6.60;;;3.27;;
69404;SDS011;57084;52.046;5.632;2022-07-12T07:23:57;6.43;;;3.47;;
69404;SDS011;57084;52.046;5.632;2022-07-12T07:26:22;6.95;;;3.53;;
69404;SDS011;57084;52.046;5.632;2022-07-12T07:28:48;10.43;;;3.23;;
69404;SDS011;57084;52.046;5.632;2022-07-12T07:31:35;8.48;;;3.50;;
69404;SDS011;57084;52.046;5.632;2022-07-12T07:34:01;7.13;;;3.55;;
69404;SDS011;57084;52.046;5.632;2022-07-12T07:36:27;10.40;;;3.70;;
69404;SDS011;57084;52.046;5.632;2022-07-12T07:38:53;10.10;;;4.50;;
69404;SDS011;57084;52.046;5.632;2022-07-12T07:41:18;7.82;;;4.65;;
69404;SDS011;57084;52.046;5.632;2022-07-12T07:43:43;10.07;;;4.63;;
69404;SDS011;57084;52.046;5.632;2022-07-12T07:46:09;11.57;;;4.77;;
69404;SDS011;57084;52.046;5.632;2022-07-12T07:48:34;6.93;;;4.20;;
69404;SDS011;57084;52.046;5.632;2022-07-12T07:51:00;13.18;;;4.88;;
69404;SDS011;57084;52.046;5.632;2022-07-12T07:53:25;8.23;;;4.90;;
69404;SDS011;57084;52.046;5.632;2022-07-12T07:55:50;19.13;;;5.23;;
69404;SDS011;57084;52.046;5.632;2022-07-12T07:58:16;11.90;;;4.60;;
69404;SDS011;57084;52.046;5.632;2022-07-12T08:00:41;9.73;;;4.60;;
69404;SDS011;57084;52.046;5.632;2022-07-12T08:03:07;11.10;;;4.85;;
69404;SDS011;57084;52.046;5.632;2022-07-12T08:05:32;11.00;;;5.17;;
69404;SDS011;57084;52.046;5.632;2022-07-12T08:07:57;9.37;;;4.60;;
69404;SDS011;57084;52.046;5.632;2022-07-12T08:10:23;9.70;;;4.90;;
69404;SDS011;57084;52.046;5.632;2022-07-12T08:12:49;10.10;;;4.40;;
69404;SDS011;57084;52.046;5.632;2022-07-12T08:15:15;8.30;;;4.20;;
69404;SDS011;57084;52.046;5.632;2022-07-12T08:17:40;8.63;;;4.50;;
69404;SDS011;57084;52.046;5.632;2022-07-12T08:20:06;8.18;;;4.18;;
69404;SDS011;57084;52.046;5.632;2022-07-12T08:22:31;11.33;;;4.77;;
69404;SDS011;57084;52.046;5.632;2022-07-12T08:24:57;8.37;;;4.53;;
69404;SDS011;57084;52.046;5.632;2022-07-12T08:27:22;5.75;;;3.28;;
69404;SDS011;57084;52.046;5.632;2022-07-12T08:29:48;28.63;;;5.53;;
69404;SDS011;57084;52.046;5.632;2022-07-12T08:32:13;11.30;;;5.07;;
69404;SDS011;57084;52.046;5.632;2022-07-12T08:34:38;17.13;;;4.80;;
69404;SDS011;57084;52.046;5.632;2022-07-12T08:37:04;12.10;;;3.83;;
69404;SDS011;57084;52.046;5.632;2022-07-12T08:39:29;10.37;;;4.13;;
69404;SDS011;57084;52.046;5.632;2022-07-12T08:41:54;7.20;;;4.17;;
69404;SDS011;57084;52.046;5.632;2022-07-12T08:44:19;7.47;;;4.17;;
69404;SDS011;57084;52.046;5.632;2022-07-12T08:46:45;12.00;;;4.10;;
69404;SDS011;57084;52.046;5.632;2022-07-12T08:49:12;6.38;;;3.47;;
69404;SDS011;57084;52.046;5.632;2022-07-12T08:51:38;7.77;;;3.83;;
69404;SDS011;57084;52.046;5.632;2022-07-12T08:54:12;8.55;;;3.25;;
69404;SDS011;57084;52.046;5.632;2022-07-12T08:56:39;10.98;;;3.13;;
69404;SDS011;57084;52.046;5.632;2022-07-12T09:04:13;5.43;;;2.40;;
69404;SDS011;57084;52.046;5.632;2022-07-12T09:06:39;4.55;;;2.50;;
69404;SDS011;57084;52.046;5.632;2022-07-12T09:09:05;5.03;;;1.95;;
69404;SDS011;57084;52.046;5.632;2022-07-12T09:11:33;5.63;;;2.60;;
69404;SDS011;57084;52.046;5.632;2022-07-12T09:14:00;7.18;;;2.80;;
69404;SDS011;57084;52.046;5.632;2022-07-12T09:16:27;4.70;;;2.28;;
69404;SDS011;57084;52.046;5.632;2022-07-12T09:24:11;7.90;;;2.60;;
69404;SDS011;57084;52.046;5.632;2022-07-12T09:26:37;20.50;;;3.30;;
69404;SDS011;57084;52.046;5.632;2022-07-12T09:29:05;8.87;;;3.80;;
69404;SDS011;57084;52.046;5.632;2022-07-12T09:34:32;4.33;;;2.33;;
69404;SDS011;57084;52.046;5.632;2022-07-12T09:37:16;5.78;;;2.30;;
69404;SDS011;57084;52.046;5.632;2022-07-12T09:39:42;5.38;;;2.45;;
69404;SDS011;57084;52.046;5.632;2022-07-12T09:42:09;16.70;;;3.50;;
69404;SDS011;57084;52.046;5.632;2022-07-12T09:44:36;17.48;;;3.60;;
69404;SDS011;57084;52.046;5.632;2022-07-12T09:47:02;7.18;;;2.53;;
69404;SDS011;57084;52.046;5.632;2022-07-12T09:49:28;14.27;;;2.20;;
69404;SDS011;57084;52.046;5.632;2022-07-12T09:51:57;6.87;;;2.90;;
69404;SDS011;57084;52.046;5.632;2022-07-12T09:54:27;19.15;;;5.03;;
69404;SDS011;57084;52.046;5.632;2022-07-12T09:56:54;15.75;;;3.70;;
69404;SDS011;57084;52.046;5.632;2022-07-12T09:59:23;17.20;;;4.75;;
69404;SDS011;57084;52.046;5.632;2022-07-12T10:01:53;7.82;;;4.28;;
69404;SDS011;57084;52.046;5.632;2022-07-12T10:04:21;6.67;;;3.67;;
69404;SDS011;57084;52.046;5.632;2022-07-12T10:06:47;7.30;;;3.28;;
69404;SDS011;57084;52.046;5.632;2022-07-12T10:09:16;9.45;;;3.75;;
69404;SDS011;57084;52.046;5.632;2022-07-12T10:11:41;6.07;;;3.17;;
69404;SDS011;57084;52.046;5.632;2022-07-12T10:14:09;6.17;;;1.90;;
69404;SDS011;57084;52.046;5.632;2022-07-12T10:16:37;6.25;;;2.40;;
69404;SDS011;57084;52.046;5.632;2022-07-12T10:21:58;6.30;;;1.95;;
69404;SDS011;57084;52.046;5.632;2022-07-12T10:26:56;17.40;;;3.60;;
69404;SDS011;57084;52.046;5.632;2022-07-12T10:29:22;37.83;;;5.30;;
69404;SDS011;57084;52.046;5.632;2022-07-12T10:31:48;7.78;;;2.53;;
69404;SDS011;57084;52.046;5.632;2022-07-12T10:34:23;7.73;;;2.53;;
69404;SDS011;57084;52.046;5.632;2022-07-12T10:39:21;48.65;;;5.65;;
69404;SDS011;57084;52.046;5.632;2022-07-12T10:47:03;105.18;;;10.50;;
69404;SDS011;57084;52.046;5.632;2022-07-12T10:49:31;18.98;;;2.92;;
69404;SDS011;57084;52.046;5.632;2022-07-12T10:54:38;7.25;;;3.20;;
69404;SDS011;57084;52.046;5.632;2022-07-12T10:57:43;5.87;;;2.10;;
69404;SDS011;57084;52.046;5.632;2022-07-12T11:00:12;6.53;;;3.00;;
69404;SDS011;57084;52.046;5.632;2022-07-12T11:02:39;4.80;;;2.22;;
69404;SDS011;57084;52.046;5.632;2022-07-12T11:05:04;7.93;;;3.13;;
69404;SDS011;57084;52.046;5.632;2022-07-12T11:07:30;8.77;;;3.83;;
69404;SDS011;57084;52.046;5.632;2022-07-12T11:09:56;6.37;;;2.50;;
69404;SDS011;57084;52.046;5.632;2022-07-12T11:12:28;6.38;;;3.05;;
69404;SDS011;57084;52.046;5.632;2022-07-12T11:14:54;5.63;;;2.17;;
69404;SDS011;57084;52.046;5.632;2022-07-12T11:17:25;7.38;;;2.80;;
69404;SDS011;57084;52.046;5.632;2022-07-12T11:20:02;8.30;;;3.08;;
69404;SDS011;57084;52.046;5.632;2022-07-12T11:22:30;7.43;;;2.85;;
69404;SDS011;57084;52.046;5.632;2022-07-12T11:24:56;7.23;;;3.13;;
69404;SDS011;57084;52.046;5.632;2022-07-12T11:27:21;7.53;;;3.60;;
69404;SDS011;57084;52.046;5.632;2022-07-12T11:29:59;11.20;;;3.23;;
69404;SDS011;57084;52.046;5.632;2022-07-12T11:32:41;5.97;;;2.70;;
69404;SDS011;57084;52.046;5.632;2022-07-12T11:35:21;7.22;;;3.63;;
69404;SDS011;57084;52.046;5.632;2022-07-12T11:37:51;13.45;;;4.07;;
69404;SDS011;57084;52.046;5.632;2022-07-12T11:40:26;10.18;;;2.80;;
69404;SDS011;57084;52.046;5.632;2022-07-12T11:43:03;6.30;;;3.42;;
69404;SDS011;57084;52.046;5.632;2022-07-12T11:45:30;6.60;;;3.13;;
69404;SDS011;57084;52.046;5.632;2022-07-12T11:47:58;4.68;;;2.25;;
69404;SDS011;57084;52.046;5.632;2022-07-12T11:50:24;7.18;;;3.85;;
69404;SDS011;57084;52.046;5.632;2022-07-12T11:52:50;9.13;;;3.17;;
69404;SDS011;57084;52.046;5.632;2022-07-12T11:55:29;6.50;;;3.40;;
69404;SDS011;57084;52.046;5.632;2022-07-12T11:58:04;7.97;;;4.47;;
69404;SDS011;57084;52.046;5.632;2022-07-12T12:00:30;8.65;;;2.90;;
69404;SDS011;57084;52.046;5.632;2022-07-12T12:02:56;6.15;;;2.92;;
69404;SDS011;57084;52.046;5.632;2022-07-12T12:05:21;5.70;;;2.80;;
69404;SDS011;57084;52.046;5.632;2022-07-12T12:07:47;6.20;;;2.60;;
69404;SDS011;57084;52.046;5.632;2022-07-12T12:10:14;7.55;;;3.25;;
69404;SDS011;57084;52.046;5.632;2022-07-12T12:15:08;6.50;;;2.85;;
69404;SDS011;57084;52.046;5.632;2022-07-12T12:17:35;6.87;;;3.03;;
69404;SDS011;57084;52.046;5.632;2022-07-12T12:20:11;5.15;;;2.38;;
69404;SDS011;57084;52.046;5.632;2022-07-12T12:22:38;5.68;;;2.00;;
69404;SDS011;57084;52.046;5.632;2022-07-12T12:25:04;9.97;;;2.73;;
69404;SDS011;57084;52.046;5.632;2022-07-12T12:27:30;10.47;;;2.73;;
69404;SDS011;57084;52.046;5.632;2022-07-12T12:30:05;7.57;;;2.53;;
69404;SDS011;57084;52.046;5.632;2022-07-12T12:35:14;4.63;;;2.05;;
69404;SDS011;57084;52.046;5.632;2022-07-12T12:37:52;4.57;;;2.30;;
69404;SDS011;57084;52.046;5.632;2022-07-12T12:40:19;5.30;;;2.08;;
69404;SDS011;57084;52.046;5.632;2022-07-12T12:42:46;5.88;;;1.73;;
69404;SDS011;57084;52.046;5.632;2022-07-12T12:45:22;3.92;;;1.50;;
69404;SDS011;57084;52.046;5.632;2022-07-12T12:47:53;4.40;;;1.53;;
69404;SDS011;57084;52.046;5.632;2022-07-12T12:50:41;5.03;;;2.20;;
69404;SDS011;57084;52.046;5.632;2022-07-12T12:55:37;4.93;;;2.22;;
69404;SDS011;57084;52.046;5.632;2022-07-12T12:58:03;3.65;;;1.80;;
69404;SDS011;57084;52.046;5.632;2022-07-12T13:00:29;4.87;;;2.07;;
69404;SDS011;57084;52.046;5.632;2022-07-12T13:02:55;4.57;;;1.90;;
69404;SDS011;57084;52.046;5.632;2022-07-12T13:05:24;5.65;;;2.08;;
69404;SDS011;57084;52.046;5.632;2022-07-12T13:07:51;6.43;;;1.92;;
69404;SDS011;57084;52.046;5.632;2022-07-12T13:10:16;4.00;;;1.73;;
69404;SDS011;57084;52.046;5.632;2022-07-12T13:12:41;6.57;;;2.10;;
69404;SDS011;57084;52.046;5.632;2022-07-12T13:15:08;5.38;;;2.30;;
69404;SDS011;57084;52.046;5.632;2022-07-12T13:17:34;5.90;;;2.70;;
69404;SDS011;57084;52.046;5.632;2022-07-12T13:19:59;6.80;;;3.10;;
69404;SDS011;57084;52.046;5.632;2022-07-12T13:22:24;7.20;;;3.30;;
69404;SDS011;57084;52.046;5.632;2022-07-12T13:24:49;8.00;;;3.20;;
69404;SDS011;57084;52.046;5.632;2022-07-12T13:27:15;7.63;;;3.00;;
69404;SDS011;57084;52.046;5.632;2022-07-12T13:29:40;5.30;;;2.47;;
69404;SDS011;57084;52.046;5.632;2022-07-12T13:32:06;3.90;;;1.70;;
69404;SDS011;57084;52.046;5.632;2022-07-12T13:34:31;4.93;;;1.70;;
69404;SDS011;57084;52.046;5.632;2022-07-12T13:36:56;7.00;;;2.10;;
69404;SDS011;57084;52.046;5.632;2022-07-12T13:39:22;3.10;;;1.47;;
69404;SDS011;57084;52.046;5.632;2022-07-12T13:42:05;2.73;;;1.30;;
69404;SDS011;57084;52.046;5.632;2022-07-12T13:44:31;4.68;;;1.38;;
69404;SDS011;57084;52.046;5.632;2022-07-12T13:46:56;3.20;;;1.27;;
69404;SDS011;57084;52.046;5.632;2022-07-12T13:49:22;4.87;;;1.40;;
69404;SDS011;57084;52.046;5.632;2022-07-12T13:51:47;4.00;;;1.63;;
69404;SDS011;57084;52.046;5.632;2022-07-12T13:54:13;3.60;;;1.70;;
69404;SDS011;57084;52.046;5.632;2022-07-12T13:56:38;3.57;;;1.60;;
69404;SDS011;57084;52.046;5.632;2022-07-12T13:59:03;2.57;;;1.40;;
69404;SDS011;57084;52.046;5.632;2022-07-12T14:01:29;5.77;;;1.40;;
69404;SDS011;57084;52.046;5.632;2022-07-12T14:03:54;3.75;;;1.35;;
69404;SDS011;57084;52.046;5.632;2022-07-12T14:06:20;6.10;;;1.30;;
69404;SDS011;57084;52.046;5.632;2022-07-12T14:08:45;5.83;;;1.40;;
69404;SDS011;57084;52.046;5.632;2022-07-12T14:11:11;6.50;;;1.60;;
69404;SDS011;57084;52.046;5.632;2022-07-12T14:13:36;3.97;;;1.50;;
69404;SDS011;57084;52.046;5.632;2022-07-12T14:16:02;6.17;;;1.40;;
69404;SDS011;57084;52.046;5.632;2022-07-12T14:18:27;5.20;;;1.40;;
69404;SDS011;57084;52.046;5.632;2022-07-12T14:20:53;3.25;;;1.30;;
69404;SDS011;57084;52.046;5.632;2022-07-12T14:23:18;3.33;;;1.50;;
69404;SDS011;57084;52.046;5.632;2022-07-12T14:25:43;3.57;;;1.70;;
69404;SDS011;57084;52.046;5.632;2022-07-12T14:28:09;5.53;;;1.40;;
69404;SDS011;57084;52.046;5.632;2022-07-12T14:30:34;7.73;;;1.67;;
69404;SDS011;57084;52.046;5.632;2022-07-12T14:33:00;5.72;;;1.60;;
69404;SDS011;57084;52.046;5.632;2022-07-12T14:35:25;6.73;;;1.57;;
69404;SDS011;57084;52.046;5.632;2022-07-12T14:37:50;4.50;;;2.30;;
69404;SDS011;57084;52.046;5.632;2022-07-12T14:40:16;4.57;;;1.37;;
69404;SDS011;57084;52.046;5.632;2022-07-12T14:42:41;4.93;;;1.67;;
69404;SDS011;57084;52.046;5.632;2022-07-12T14:45:09;4.13;;;1.40;;
69404;SDS011;57084;52.046;5.632;2022-07-12T14:47:34;7.07;;;1.80;;
69404;SDS011;57084;52.046;5.632;2022-07-12T14:49:59;4.60;;;1.63;;
69404;SDS011;57084;52.046;5.632;2022-07-12T14:52:26;5.85;;;1.92;;
69404;SDS011;57084;52.046;5.632;2022-07-12T14:54:52;11.13;;;1.87;;
69404;SDS011;57084;52.046;5.632;2022-07-12T14:57:17;6.73;;;1.90;;
69404;SDS011;57084;52.046;5.632;2022-07-12T14:59:43;6.07;;;1.90;;
69404;SDS011;57084;52.046;5.632;2022-07-12T15:02:08;7.67;;;1.80;;
69404;SDS011;57084;52.046;5.632;2022-07-12T15:04:33;9.97;;;2.27;;
69404;SDS011;57084;52.046;5.632;2022-07-12T15:06:59;4.37;;;2.20;;
69404;SDS011;57084;52.046;5.632;2022-07-12T15:09:24;3.90;;;1.77;;
69404;SDS011;57084;52.046;5.632;2022-07-12T15:11:49;6.07;;;2.10;;
69404;SDS011;57084;52.046;5.632;2022-07-12T15:14:15;7.38;;;2.30;;
69404;SDS011;57084;52.046;5.632;2022-07-12T15:16:41;4.40;;;2.00;;
69404;SDS011;57084;52.046;5.632;2022-07-12T15:19:06;5.20;;;2.10;;